createdAt,value
2022-11-30T00:03:53.073Z,18.00
2022-11-30T00:09:01.107Z,18.20
2022-11-30T00:14:08.100Z,19.57
2022-11-30T00:19:15.605Z,21.10
2022-11-30T00:24:22.760Z,20.37
2022-11-30T00:29:29.926Z,19.67
2022-11-30T00:34:37.044Z,19.13
2022-11-30T00:39:44.120Z,19.17
2022-11-30T00:44:50.963Z,18.20
2022-11-30T00:49:57.862Z,18.77
2022-11-30T00:55:05.615Z,18.80
2022-11-30T01:00:13.299Z,18.97
2022-11-30T01:05:20.698Z,16.80
2022-11-30T01:10:28.171Z,17.03
2022-11-30T01:15:40.907Z,14.50
2022-11-30T01:20:47.811Z,14.57
2022-11-30T01:25:58.582Z,13.87
2022-11-30T01:31:09.648Z,13.20
2022-11-30T01:36:21.017Z,13.30
2022-11-30T01:41:32.369Z,12.87
2022-11-30T01:46:59.153Z,14.00
2022-11-30T01:52:25.227Z,14.03
2022-11-30T01:57:36.568Z,14.20
2022-11-30T02:03:05.838Z,14.37
2022-11-30T02:08:14.510Z,14.70
2022-11-30T02:13:55.713Z,13.77
2022-11-30T02:19:44.610Z,13.83
2022-11-30T02:25:13.775Z,12.43
2022-11-30T02:30:23.370Z,13.00
2022-11-30T02:35:33.883Z,14.00
2022-11-30T02:40:40.706Z,14.43
2022-11-30T02:46:21.873Z,13.70
2022-11-30T02:51:30.753Z,13.80
2022-11-30T02:56:37.438Z,14.17
2022-11-30T03:01:45.898Z,15.97
2022-11-30T03:06:52.613Z,16.27
2022-11-30T03:11:59.301Z,16.07
2022-11-30T03:17:07.314Z,15.77
2022-11-30T03:22:14.019Z,16.40
2022-11-30T03:27:20.739Z,16.87
2022-11-30T03:32:27.410Z,17.67
2022-11-30T03:37:34.112Z,16.80
2022-11-30T03:42:40.817Z,17.23
2022-11-30T03:47:47.566Z,18.63
2022-11-30T03:52:54.246Z,18.37
2022-11-30T03:58:00.987Z,17.57
2022-11-30T04:03:08.037Z,18.63
2022-11-30T04:08:14.733Z,17.13
2022-11-30T04:13:22.462Z,18.00
2022-11-30T04:18:31.531Z,17.33
2022-11-30T04:23:41.405Z,17.13
2022-11-30T04:28:48.115Z,16.70
2022-11-30T04:33:57.576Z,17.03
2022-11-30T04:39:04.250Z,18.23
2022-11-30T04:44:11.085Z,20.03
2022-11-30T04:49:17.804Z,18.30
2022-11-30T04:54:24.568Z,15.17
2022-11-30T04:59:31.256Z,14.40
2022-11-30T05:04:38.197Z,13.43
2022-11-30T05:09:44.968Z,12.97
2022-11-30T05:14:51.720Z,14.50
2022-11-30T05:19:58.446Z,16.13
2022-11-30T05:25:06.257Z,14.27
2022-11-30T05:30:13.890Z,13.70
2022-11-30T05:35:20.592Z,13.47
2022-11-30T05:40:29.012Z,11.80
2022-11-30T05:45:35.795Z,11.20
2022-11-30T05:50:43.011Z,11.07
2022-11-30T05:55:49.722Z,10.70
2022-11-30T06:00:56.531Z,11.60
2022-11-30T06:06:04.701Z,11.13
2022-11-30T06:11:11.605Z,10.93
2022-11-30T06:16:18.742Z,14.47
2022-11-30T06:21:25.488Z,15.37
2022-11-30T06:26:32.700Z,14.40
2022-11-30T06:31:39.726Z,15.97
2022-11-30T06:36:46.878Z,15.53
2022-11-30T06:41:54.700Z,15.13
2022-11-30T06:47:01.706Z,15.33
2022-11-30T06:52:09.194Z,14.47
2022-11-30T06:57:16.431Z,15.13
2022-11-30T07:02:24.476Z,15.23
2022-11-30T07:07:31.818Z,14.57
2022-11-30T07:12:38.520Z,47.73
2022-11-30T07:17:45.228Z,28.43
2022-11-30T07:22:51.953Z,20.87
2022-11-30T07:27:58.646Z,14.80
2022-11-30T07:33:05.418Z,14.33
2022-11-30T07:38:12.173Z,15.00
2022-11-30T07:43:18.930Z,15.60
2022-11-30T07:48:25.623Z,15.20
2022-11-30T07:53:32.361Z,15.30
2022-11-30T07:58:39.750Z,14.70
2022-11-30T08:03:46.787Z,15.23
2022-11-30T08:08:55.386Z,16.87
2022-11-30T08:14:03.351Z,16.07
2022-11-30T08:19:10.113Z,16.23
2022-11-30T08:24:17.040Z,16.43
2022-11-30T08:29:23.742Z,16.53
2022-11-30T08:34:30.490Z,16.93
2022-11-30T08:39:37.241Z,14.70
2022-11-30T08:44:43.962Z,15.93
2022-11-30T08:49:50.643Z,13.43
2022-11-30T08:54:57.365Z,17.43
2022-11-30T09:00:04.998Z,15.37
2022-11-30T09:05:11.965Z,17.03
2022-11-30T09:10:19.071Z,16.70
2022-11-30T09:15:25.853Z,17.67
2022-11-30T09:20:32.686Z,15.83
2022-11-30T09:25:39.380Z,14.87
2022-11-30T09:30:46.148Z,14.37
2022-11-30T09:36:00.769Z,13.30
2022-11-30T09:41:17.830Z,11.67
2022-11-30T09:46:29.152Z,11.40
2022-11-30T09:51:52.372Z,12.10
2022-11-30T09:56:59.190Z,13.20
2022-11-30T10:02:15.689Z,13.77
2022-11-30T10:07:41.933Z,13.30
2022-11-30T10:13:15.540Z,14.93
2022-11-30T10:18:29.455Z,11.73
2022-11-30T10:23:55.596Z,11.80
2022-11-30T10:29:09.441Z,12.27
2022-11-30T10:39:40.193Z,12.00
2022-11-30T10:44:51.756Z,12.97
2022-11-30T10:49:58.439Z,13.00
2022-11-30T10:55:06.730Z,12.63
2022-11-30T11:00:18.581Z,12.67
2022-11-30T11:05:31.510Z,13.20
2022-11-30T11:10:51.940Z,13.77
2022-11-30T11:16:01.809Z,13.47
2022-11-30T11:21:13.033Z,13.67
2022-11-30T11:26:25.957Z,14.67
2022-11-30T11:31:49.859Z,13.30
2022-11-30T11:37:15.922Z,14.70
2022-11-30T11:42:24.314Z,18.10
2022-11-30T11:47:41.029Z,18.67
2022-11-30T11:52:47.789Z,15.10
2022-11-30T11:58:01.060Z,35.90
2022-11-30T12:03:45.344Z,15.15
2022-11-30T12:09:05.210Z,16.40
2022-11-30T12:14:15.651Z,13.67
2022-11-30T12:19:35.928Z,12.30
2022-11-30T12:25:07.943Z,13.17
2022-11-30T12:30:44.614Z,15.97
2022-11-30T12:36:14.633Z,11.90
2022-11-30T12:41:34.886Z,9.27
2022-11-30T12:46:48.847Z,12.47
2022-11-30T12:52:06.042Z,12.30
2022-11-30T12:57:31.756Z,12.47
2022-11-30T13:03:14.169Z,11.70
2022-11-30T13:08:37.314Z,11.77
2022-11-30T13:13:48.505Z,13.03
2022-11-30T13:18:59.708Z,11.77
2022-11-30T13:24:32.334Z,11.10
2022-11-30T13:29:58.552Z,10.57
2022-11-30T13:35:34.892Z,10.30
2022-11-30T13:40:41.663Z,10.53
2022-11-30T13:45:48.989Z,10.37
2022-11-30T13:50:56.737Z,8.97
2022-11-30T13:56:10.893Z,8.67
2022-11-30T14:06:56.972Z,9.38
2022-11-30T14:12:37.828Z,8.00
2022-11-30T14:17:44.973Z,8.77
2022-11-30T14:22:54.748Z,8.77
2022-11-30T14:28:04.710Z,8.40
2022-11-30T14:33:19.989Z,8.67
2022-11-30T14:38:31.778Z,8.23
2022-11-30T14:43:38.926Z,8.60
2022-11-30T14:48:45.988Z,8.83
2022-11-30T14:54:12.817Z,9.50
2022-11-30T14:59:51.080Z,8.87
2022-11-30T15:04:59.212Z,9.50
2022-11-30T15:10:13.078Z,8.10
2022-11-30T15:20:32.597Z,8.63
2022-11-30T15:25:52.206Z,7.70
2022-11-30T15:31:02.741Z,7.93
2022-11-30T15:36:27.962Z,8.90
2022-11-30T15:41:22.895Z,9.47
2022-11-30T15:46:46.364Z,8.63
2022-11-30T15:51:57.502Z,8.93
2022-11-30T15:57:07.487Z,7.53
2022-11-30T16:02:34.875Z,7.90
2022-11-30T16:08:03.991Z,7.67
2022-11-30T16:13:16.418Z,6.47
2022-11-30T16:18:27.035Z,6.40
2022-11-30T16:23:38.197Z,5.57
2022-11-30T16:28:44.951Z,6.43
2022-11-30T16:33:52.667Z,6.77
2022-11-30T16:39:00.222Z,8.97
2022-11-30T16:44:12.271Z,8.73
2022-11-30T16:49:20.655Z,8.73
2022-11-30T16:54:27.415Z,8.57
2022-11-30T16:59:34.489Z,7.33
2022-11-30T17:04:42.499Z,7.20
2022-11-30T17:09:49.119Z,7.03
2022-11-30T17:14:56.268Z,6.80
2022-11-30T17:20:04.318Z,6.60
2022-11-30T17:25:15.894Z,5.50
2022-11-30T17:30:24.819Z,6.60
2022-11-30T17:35:31.649Z,7.03
2022-11-30T17:40:44.243Z,6.03
2022-11-30T17:45:51.211Z,7.00
2022-11-30T17:50:58.490Z,6.83
2022-11-30T17:56:08.505Z,5.80
2022-11-30T18:01:22.444Z,6.13
2022-11-30T18:06:30.148Z,6.33
2022-11-30T18:11:37.390Z,7.13
2022-11-30T18:16:44.459Z,7.43
2022-11-30T18:21:51.763Z,12.77
2022-11-30T18:26:59.248Z,11.70
2022-11-30T18:32:06.637Z,5.50
2022-11-30T18:37:14.111Z,3.70
2022-11-30T18:42:21.555Z,3.37
2022-11-30T18:47:28.591Z,3.63
2022-11-30T18:52:36.042Z,3.80
2022-11-30T18:57:43.380Z,3.37
2022-11-30T19:02:51.954Z,4.20
2022-11-30T19:08:00.097Z,3.90
2022-11-30T19:13:08.273Z,4.17
2022-11-30T19:18:17.264Z,3.93
2022-11-30T19:23:24.550Z,4.40
2022-11-30T19:28:32.775Z,4.47
2022-11-30T19:33:42.097Z,4.00
2022-11-30T19:38:51.935Z,4.53
2022-11-30T19:44:04.838Z,4.27
2022-11-30T19:49:13.081Z,4.87
2022-11-30T19:54:19.852Z,4.37
2022-11-30T19:59:26.847Z,4.77
2022-11-30T20:04:33.677Z,4.67
2022-11-30T20:09:40.657Z,4.30
2022-11-30T20:14:49.272Z,5.40
2022-11-30T20:19:56.664Z,5.90
2022-11-30T20:25:04.138Z,5.90
2022-11-30T20:30:13.377Z,6.43
2022-11-30T20:35:20.835Z,6.20
2022-11-30T20:40:27.899Z,6.83
2022-11-30T20:45:35.295Z,5.47
2022-11-30T20:50:51.345Z,5.40
2022-11-30T20:55:52.249Z,5.30
2022-11-30T21:01:01.542Z,5.67
2022-11-30T21:06:08.815Z,5.50
2022-11-30T21:11:18.754Z,5.77
2022-11-30T21:16:30.160Z,5.07
2022-11-30T21:21:38.580Z,5.13
2022-11-30T21:26:45.837Z,5.87
2022-11-30T21:31:53.097Z,5.37
2022-11-30T21:37:00.340Z,5.77
2022-11-30T21:42:07.360Z,5.27
2022-11-30T21:47:15.360Z,6.07
2022-11-30T21:52:22.305Z,5.80
2022-11-30T21:57:29.535Z,5.00
2022-11-30T22:02:37.824Z,5.10
2022-11-30T22:07:45.004Z,4.63
2022-11-30T22:12:52.010Z,4.90
2022-11-30T22:17:59.370Z,4.30
2022-11-30T22:23:07.092Z,4.57
2022-11-30T22:28:14.345Z,4.10
2022-11-30T22:33:22.256Z,4.07
2022-11-30T22:38:30.561Z,4.30
2022-11-30T22:43:38.174Z,4.90
2022-11-30T22:48:46.148Z,4.73
2022-11-30T22:53:54.894Z,4.13
2022-11-30T22:59:03.167Z,4.17
2022-11-30T23:04:20.236Z,4.10
2022-11-30T23:09:27.392Z,4.20
2022-11-30T23:14:34.892Z,4.20
2022-11-30T23:19:42.412Z,4.60
2022-11-30T23:24:50.398Z,3.80
2022-11-30T23:29:57.228Z,4.13
2022-11-30T23:35:05.383Z,4.30
2022-11-30T23:40:13.122Z,4.07
2022-11-30T23:45:20.284Z,4.33
2022-11-30T23:50:27.322Z,3.63
2022-11-30T23:55:35.937Z,4.53
